Aviation Digital Data Service (ADDS)

Output produced by METARs form (1022 UTC 17 February 2019)
found at http://aviationweather.gov/metar/data/
 
KEWR 170951Z 36012KT 10SM FEW250 M03/M10 A3009 RMK AO2 SLP188 T10331100
KEWR 170855Z 1709/1812 36009KT P6SM FEW250 
     FM171300 02006KT P6SM FEW250 
     FM171800 11004KT P6SM SCT250 
     FM172000 16006KT P6SM SCT100 BKN200 
     FM180300 09005KT 3SM -SNPL BR BKN025 OVC050 
     FM180700 05009KT 2SM -PLRA BR BKN008 
     FM181000 04011KT 2SM -RA BR BKN006